<?xml version="1.0" encoding="UTF-8"?>
<gpx version="1.1" creator="2bulu-scraper" xmlns="http://www.topografix.com/GPX/1/1">
  <metadata><name>内江隆昌市</name><desc>source: 2bulu.com trackId=83905482; exported 2026-09-01T18:00:44.480Z</desc>
    <bounds minlat="29.3186159" minlon="105.2436476" maxlat="29.3384668" maxlon="105.2678602"/>
    <link href="https://www.2bulu.com/track/t-S6gKI6hzVy%252Fp%252FR2KBg5Tzw%253D%253D.htm"><text>2bulu 源页面</text></link>
  </metadata>
  <wpt lat="29.3379611" lon="105.2673166"><ele>359</ele><name>
        </name></wpt>
  <wpt lat="29.3379992" lon="105.266722"><ele>360</ele><name>
        </name></wpt>
  <wpt lat="29.336904" lon="105.259882"><ele>311</ele><name>
        </name></wpt>
  <wpt lat="29.3354391" lon="105.2592525"><ele>308</ele><name>
        </name></wpt>
  <wpt lat="29.3347951" lon="105.2512061"><ele>330</ele><name>
        </name></wpt>
  <wpt lat="29.3348225" lon="105.2491608"><ele>320</ele><name>
        </name></wpt>
  <wpt lat="29.3348225" lon="105.2491608"><ele>320</ele><name>
        </name></wpt>
  <wpt lat="29.333226" lon="105.2493381"><ele>320</ele><name>
        </name></wpt>
  <wpt lat="29.3335928" lon="105.2483012"><ele>322</ele><name>
        </name></wpt>
  <wpt lat="29.3337165" lon="105.2483312"><ele>321</ele><name>
        </name></wpt>
  <wpt lat="29.3337165" lon="105.2483312"><ele>321</ele><name>
        </name></wpt>
  <wpt lat="29.3336549" lon="105.248331"><ele>321</ele><name>
        </name></wpt>
  <wpt lat="29.3296341" lon="105.2462519"><ele>334</ele><name>
        </name></wpt>
  <wpt lat="29.3294659" lon="105.2461961"><ele>334</ele><name>
        </name></wpt>
  <wpt lat="29.3289913" lon="105.2462888"><ele>335</ele><name>
        </name></wpt>
  <wpt lat="29.3241609" lon="105.2486275"><ele>320</ele><name>
        </name></wpt>
  <wpt lat="29.3219871" lon="105.2482657"><ele>290</ele><name>
        </name></wpt>
  <wpt lat="29.3219871" lon="105.2482657"><ele>290</ele><name>
        </name></wpt>
  <wpt lat="29.3219977" lon="105.2481511"><ele>290</ele><name>
        </name></wpt>
  <wpt lat="29.3222787" lon="105.2461138"><ele>285</ele><name>
        </name></wpt>
  <wpt lat="29.3226417" lon="105.2452284"><ele>283</ele><name>
        </name></wpt>
  <wpt lat="29.3270144" lon="105.2477599"><ele>341</ele><name>
        </name></wpt>
  <wpt lat="29.3280277" lon="105.2473701"><ele>343</ele><name>
        </name></wpt>
  <wpt lat="29.3296193" lon="105.2461961"><ele>335</ele><name>
        </name></wpt>
  <wpt lat="29.3304194" lon="105.2461907"><ele>328</ele><name>
        </name></wpt>
  <wpt lat="29.3318421" lon="105.2461847"><ele>321</ele><name>
        </name></wpt>
  <wpt lat="29.3332411" lon="105.2492968"><ele>324</ele><name>
        </name></wpt>
  <wpt lat="29.3350371" lon="105.2501306"><ele>318</ele><name>
        </name></wpt>
  <wpt lat="29.3344265" lon="105.2524878"><ele>333</ele><name>
        </name></wpt>
  <wpt lat="29.3330118" lon="105.255284"><ele>340</ele><name>
        </name></wpt>
  <wpt lat="29.3324082" lon="105.2573716"><ele>331</ele><name>
        </name></wpt>
  <wpt lat="29.333209" lon="105.2587411"><ele>317</ele><name>
        </name></wpt>
  <wpt lat="29.3337797" lon="105.2587928"><ele>313</ele><name>
        </name></wpt>
  <wpt lat="29.3349554" lon="105.2591078"><ele>316</ele><name>
        </name></wpt>
  <wpt lat="29.33555" lon="105.2593015"><ele>310</ele><name>
        </name></wpt>
  <wpt lat="29.3364288" lon="105.2598463"><ele>306</ele><name>
        </name></wpt>
  <wpt lat="29.3369894" lon="105.2599055"><ele>310</ele><name>
        </name></wpt>
  <trk><name>内江隆昌市</name>
      <trkseg>
        <trkpt lat="29.3384668" lon="105.2678602"><ele>357.49</ele><time>2026-04-25T14:57:14.000Z</time></trkpt>
        <trkpt lat="29.3383423" lon="105.2677272"><ele>357.49</ele><time>2026-04-25T14:57:15.000Z</time></trkpt>
        <trkpt lat="29.3382053" lon="105.2676571"><ele>357.41</ele><time>2026-04-25T14:57:17.000Z</time></trkpt>
        <trkpt lat="29.3380927" lon="105.267582"><ele>357.54</ele><time>2026-04-25T14:57:19.000Z</time></trkpt>
        <trkpt lat="29.3380199" lon="105.2674906"><ele>357.68</ele><time>2026-04-25T14:57:22.000Z</time></trkpt>
        <trkpt lat="29.337981" lon="105.2673937"><ele>357.87</ele><time>2026-04-25T14:57:23.000Z</time></trkpt>
        <trkpt lat="29.3379611" lon="105.2673166"><ele>358.09</ele><time>2026-04-25T14:57:31.000Z</time></trkpt>
        <trkpt lat="29.3379463" lon="105.2672124"><ele>358.32</ele><time>2026-04-25T14:57:39.000Z</time></trkpt>
        <trkpt lat="29.3379399" lon="105.2670934"><ele>358.61</ele><time>2026-04-25T14:57:42.000Z</time></trkpt>
        <trkpt lat="29.3379465" lon="105.26697"><ele>358.76</ele><time>2026-04-25T14:57:43.000Z</time></trkpt>
        <trkpt lat="29.3379682" lon="105.2668527"><ele>358.86</ele><time>2026-04-25T14:57:45.000Z</time></trkpt>
        <trkpt lat="29.3379992" lon="105.266722"><ele>359.18</ele><time>2026-04-25T14:57:49.000Z</time></trkpt>
        <trkpt lat="29.3380114" lon="105.2666729"><ele>359.61</ele><time>2026-04-25T14:57:54.000Z</time></trkpt>
        <trkpt lat="29.338052" lon="105.2665114"><ele>359.99</ele><time>2026-04-25T14:58:01.000Z</time></trkpt>
        <trkpt lat="29.3380976" lon="105.2663618"><ele>359.96</ele><time>2026-04-25T14:58:04.000Z</time></trkpt>
        <trkpt lat="29.3381243" lon="105.2662072"><ele>359.71</ele><time>2026-04-25T14:58:05.000Z</time></trkpt>
        <trkpt lat="29.3381209" lon="105.2660506"><ele>359.35</ele><time>2026-04-25T14:58:07.000Z</time></trkpt>
        <trkpt lat="29.3381138" lon="105.2658826"><ele>358.96</ele><time>2026-04-25T14:58:09.000Z</time></trkpt>
        <trkpt lat="29.3381017" lon="105.2657258"><ele>358.55</ele><time>2026-04-25T14:58:11.000Z</time></trkpt>
        <trkpt lat="29.338079" lon="105.2655687"><ele>358.03</ele><time>2026-04-25T14:58:13.000Z</time></trkpt>
        <trkpt lat="29.3380243" lon="105.2654026"><ele>357.59</ele><time>2026-04-25T14:58:15.000Z</time></trkpt>
        <trkpt lat="29.337974" lon="105.2652141"><ele>356.43</ele><time>2026-04-25T14:58:17.000Z</time></trkpt>
        <trkpt lat="29.3379395" lon="105.2650032"><ele>354.94</ele><time>2026-04-25T14:58:19.000Z</time></trkpt>
        <trkpt lat="29.3379165" lon="105.2647772"><ele>353.35</ele><time>2026-04-25T14:58:21.000Z</time></trkpt>
        <trkpt lat="29.3379053" lon="105.2645384"><ele>351.66</ele><time>2026-04-25T14:58:23.000Z</time></trkpt>
        <trkpt lat="29.3379205" lon="105.2643071"><ele>349.79</ele><time>2026-04-25T14:58:25.000Z</time></trkpt>
        <trkpt lat="29.3379481" lon="105.2640899"><ele>348.18</ele><time>2026-04-25T14:58:28.000Z</time></trkpt>
        <trkpt lat="29.3379648" lon="105.2639012"><ele>346.58</ele><time>2026-04-25T14:58:29.000Z</time></trkpt>
        <trkpt lat="29.3379318" lon="105.2637291"><ele>344.79</ele><time>2026-04-25T14:58:31.000Z</time></trkpt>
        <trkpt lat="29.3378513" lon="105.2635741"><ele>343.37</ele><time>2026-04-25T14:58:33.000Z</time></trkpt>
        <trkpt lat="29.3377293" lon="105.2634345"><ele>341.86</ele><time>2026-04-25T14:58:35.000Z</time></trkpt>
        <trkpt lat="29.3375998" lon="105.2633024"><ele>340.29</ele><time>2026-04-25T14:58:37.000Z</time></trkpt>
        <trkpt lat="29.3374829" lon="105.2631449"><ele>339.37</ele><time>2026-04-25T14:58:39.000Z</time></trkpt>
        <trkpt lat="29.3373998" lon="105.2629739"><ele>338.22</ele><time>2026-04-25T14:58:41.000Z</time></trkpt>
        <trkpt lat="29.3373488" lon="105.2627841"><ele>337.08</ele><time>2026-04-25T14:58:43.000Z</time></trkpt>
        <trkpt lat="29.3373185" lon="105.2625948"><ele>335.51</ele><time>2026-04-25T14:58:45.000Z</time></trkpt>
        <trkpt lat="29.3372963" lon="105.2623942"><ele>334.7</ele><time>2026-04-25T14:58:47.000Z</time></trkpt>
        <trkpt lat="29.337287" lon="105.2621963"><ele>334.09</ele><time>2026-04-25T14:58:49.000Z</time></trkpt>
        <trkpt lat="29.3372706" lon="105.2619914"><ele>333.52</ele><time>2026-04-25T14:58:51.000Z</time></trkpt>
        <trkpt lat="29.3372436" lon="105.2617843"><ele>332.83</ele><time>2026-04-25T14:58:53.000Z</time></trkpt>
        <trkpt lat="29.3372455" lon="105.2615962"><ele>332</ele><time>2026-04-25T14:58:55.000Z</time></trkpt>
        <trkpt lat="29.3372774" lon="105.2614294"><ele>330.93</ele><time>2026-04-25T14:58:58.000Z</time></trkpt>
        <trkpt lat="29.3373505" lon="105.2612781"><ele>330.31</ele><time>2026-04-25T14:58:59.000Z</time></trkpt>
        <trkpt lat="29.3374311" lon="105.2611315"><ele>329.84</ele><time>2026-04-25T14:59:01.000Z</time></trkpt>
        <trkpt lat="29.3375214" lon="105.2609893"><ele>328.72</ele><time>2026-04-25T14:59:03.000Z</time></trkpt>
        <trkpt lat="29.3375998" lon="105.2608615"><ele>327.23</ele><time>2026-04-25T14:59:06.000Z</time></trkpt>
        <trkpt lat="29.3376534" lon="105.2607544"><ele>325.74</ele><time>2026-04-25T14:59:07.000Z</time></trkpt>
        <trkpt lat="29.3376817" lon="105.2606052"><ele>324.15</ele><time>2026-04-25T14:59:11.000Z</time></trkpt>
        <trkpt lat="29.3376518" lon="105.260474"><ele>322.46</ele><time>2026-04-25T14:59:13.000Z</time></trkpt>
        <trkpt lat="29.337593" lon="105.2603495"><ele>320.96</ele><time>2026-04-25T14:59:15.000Z</time></trkpt>
        <trkpt lat="29.3375021" lon="105.2602527"><ele>319.82</ele><time>2026-04-25T14:59:17.000Z</time></trkpt>
        <trkpt lat="29.337408" lon="105.2601802"><ele>318.28</ele><time>2026-04-25T14:59:20.000Z</time></trkpt>
        <trkpt lat="29.3373052" lon="105.260123"><ele>317.15</ele><time>2026-04-25T14:59:21.000Z</time></trkpt>
        <trkpt lat="29.3372114" lon="105.2600643"><ele>316.14</ele><time>2026-04-25T14:59:23.000Z</time></trkpt>
        <trkpt lat="29.3371285" lon="105.2600039"><ele>314.97</ele><time>2026-04-25T14:59:25.000Z</time></trkpt>
        <trkpt lat="29.3370051" lon="105.2599232"><ele>314.01</ele><time>2026-04-25T14:59:29.000Z</time></trkpt>
        <trkpt lat="29.336904" lon="105.259882"><ele>313.14</ele><time>2026-04-25T14:59:35.000Z</time></trkpt>
        <trkpt lat="29.3367492" lon="105.2598841"><ele>312.33</ele><time>2026-04-25T14:59:45.000Z</time></trkpt>
        <trkpt lat="29.3366329" lon="105.2598812"><ele>310.89</ele><time>2026-04-25T14:59:47.000Z</time></trkpt>
        <trkpt lat="29.3365308" lon="105.2598774"><ele>309.81</ele><time>2026-04-25T14:59:49.000Z</time></trkpt>
        <trkpt lat="29.3364367" lon="105.2598662"><ele>309.11</ele><time>2026-04-25T14:59:51.000Z</time></trkpt>
        <trkpt lat="29.3363439" lon="105.2598322"><ele>308.68</ele><time>2026-04-25T14:59:54.000Z</time></trkpt>
        <trkpt lat="29.3362524" lon="105.2597834"><ele>308.26</ele><time>2026-04-25T14:59:55.000Z</time></trkpt>
        <trkpt lat="29.3361667" lon="105.2597298"><ele>308.14</ele><time>2026-04-25T14:59:57.000Z</time></trkpt>
        <trkpt lat="29.3360828" lon="105.2596718"><ele>307.98</ele><time>2026-04-25T15:00:00.000Z</time></trkpt>
        <trkpt lat="29.3360028" lon="105.2596167"><ele>307.71</ele><time>2026-04-25T15:00:01.000Z</time></trkpt>
        <trkpt lat="29.3358604" lon="105.2595209"><ele>307.53</ele><time>2026-04-25T15:00:05.000Z</time></trkpt>
        <trkpt lat="29.3357337" lon="105.2594442"><ele>307.49</ele><time>2026-04-25T15:00:07.000Z</time></trkpt>
        <trkpt lat="29.3356085" lon="105.2593682"><ele>307.51</ele><time>2026-04-25T15:00:09.000Z</time></trkpt>
        <trkpt lat="29.3355043" lon="105.2593034"><ele>307.59</ele><time>2026-04-25T15:00:12.000Z</time></trkpt>
        <trkpt lat="29.3354391" lon="105.2592525"><ele>307.78</ele><time>2026-04-25T15:00:16.000Z</time></trkpt>
        <trkpt lat="29.3353096" lon="105.2592019"><ele>307.99</ele><time>2026-04-25T15:00:29.000Z</time></trkpt>
        <trkpt lat="29.3352022" lon="105.2591701"><ele>309.08</ele><time>2026-04-25T15:00:31.000Z</time></trkpt>
        <trkpt lat="29.3350872" lon="105.2591444"><ele>310</ele><time>2026-04-25T15:00:33.000Z</time></trkpt>
        <trkpt lat="29.3349709" lon="105.2591217"><ele>310.84</ele><time>2026-04-25T15:00:35.000Z</time></trkpt>
        <trkpt lat="29.3348677" lon="105.2590949"><ele>311.39</ele><time>2026-04-25T15:00:38.000Z</time></trkpt>
        <trkpt lat="29.334759" lon="105.2590628"><ele>311.83</ele><time>2026-04-25T15:00:39.000Z</time></trkpt>
        <trkpt lat="29.3346534" lon="105.259026"><ele>312.4</ele><time>2026-04-25T15:00:41.000Z</time></trkpt>
        <trkpt lat="29.3345466" lon="105.2589954"><ele>312.82</ele><time>2026-04-25T15:00:43.000Z</time></trkpt>
        <trkpt lat="29.3344406" lon="105.2589511"><ele>313.91</ele><time>2026-04-25T15:00:45.000Z</time></trkpt>
        <trkpt lat="29.334329" lon="105.2589029"><ele>314.4</ele><time>2026-04-25T15:00:47.000Z</time></trkpt>
        <trkpt lat="29.3342135" lon="105.2588641"><ele>314.59</ele><time>2026-04-25T15:00:49.000Z</time></trkpt>
        <trkpt lat="29.3340829" lon="105.2588369"><ele>314.65</ele><time>2026-04-25T15:00:51.000Z</time></trkpt>
        <trkpt lat="29.33394" lon="105.2588164"><ele>314.6</ele><time>2026-04-25T15:00:53.000Z</time></trkpt>
        <trkpt lat="29.3337924" lon="105.2587978"><ele>314.51</ele><time>2026-04-25T15:00:56.000Z</time></trkpt>
        <trkpt lat="29.3336597" lon="105.2587756"><ele>314.6</ele><time>2026-04-25T15:00:57.000Z</time></trkpt>
        <trkpt lat="29.3335238" lon="105.2587514"><ele>315.02</ele><time>2026-04-25T15:01:00.000Z</time></trkpt>
        <trkpt lat="29.3333784" lon="105.2587316"><ele>315.24</ele><time>2026-04-25T15:01:01.000Z</time></trkpt>
        <trkpt lat="29.333237" lon="105.2587148"><ele>315.61</ele><time>2026-04-25T15:01:03.000Z</time></trkpt>
        <trkpt lat="29.3331082" lon="105.2586856"><ele>315.92</ele><time>2026-04-25T15:01:05.000Z</time></trkpt>
        <trkpt lat="29.3330023" lon="105.2586054"><ele>315.99</ele><time>2026-04-25T15:01:07.000Z</time></trkpt>
        <trkpt lat="29.3329213" lon="105.2584799"><ele>315.9</ele><time>2026-04-25T15:01:10.000Z</time></trkpt>
        <trkpt lat="29.3328385" lon="105.2583167"><ele>316.17</ele><time>2026-04-25T15:01:11.000Z</time></trkpt>
        <trkpt lat="29.3327466" lon="105.2581321"><ele>316.34</ele><time>2026-04-25T15:01:13.000Z</time></trkpt>
        <trkpt lat="29.3326418" lon="105.257952"><ele>316.75</ele><time>2026-04-25T15:01:15.000Z</time></trkpt>
        <trkpt lat="29.3325407" lon="105.2577898"><ele>317.44</ele><time>2026-04-25T15:01:17.000Z</time></trkpt>
        <trkpt lat="29.3324487" lon="105.2576359"><ele>318.02</ele><time>2026-04-25T15:01:19.000Z</time></trkpt>
        <trkpt lat="29.3323904" lon="105.2574852"><ele>318.88</ele><time>2026-04-25T15:01:22.000Z</time></trkpt>
        <trkpt lat="29.3323891" lon="105.2573117"><ele>319.98</ele><time>2026-04-25T15:01:23.000Z</time></trkpt>
        <trkpt lat="29.3324306" lon="105.2571278"><ele>320.71</ele><time>2026-04-25T15:01:26.000Z</time></trkpt>
        <trkpt lat="29.3324914" lon="105.2569454"><ele>321.18</ele><time>2026-04-25T15:01:27.000Z</time></trkpt>
        <trkpt lat="29.3325647" lon="105.2567782"><ele>321.48</ele><time>2026-04-25T15:01:30.000Z</time></trkpt>
        <trkpt lat="29.3326266" lon="105.2566163"><ele>322.49</ele><time>2026-04-25T15:01:31.000Z</time></trkpt>
        <trkpt lat="29.3326739" lon="105.2564571"><ele>323.63</ele><time>2026-04-25T15:01:33.000Z</time></trkpt>
        <trkpt lat="29.3327092" lon="105.2562995"><ele>325.01</ele><time>2026-04-25T15:01:35.000Z</time></trkpt>
        <trkpt lat="29.3327485" lon="105.256152"><ele>325.6</ele><time>2026-04-25T15:01:37.000Z</time></trkpt>
        <trkpt lat="29.3327864" lon="105.2560146"><ele>326.72</ele><time>2026-04-25T15:01:40.000Z</time></trkpt>
        <trkpt lat="29.3328202" lon="105.2558821"><ele>327.94</ele><time>2026-04-25T15:01:42.000Z</time></trkpt>
        <trkpt lat="29.3328587" lon="105.2557403"><ele>329.02</ele><time>2026-04-25T15:01:43.000Z</time></trkpt>
        <trkpt lat="29.3328989" lon="105.2555932"><ele>330.13</ele><time>2026-04-25T15:01:45.000Z</time></trkpt>
        <trkpt lat="29.3329435" lon="105.255447"><ele>331.18</ele><time>2026-04-25T15:01:47.000Z</time></trkpt>
        <trkpt lat="29.3329848" lon="105.2553266"><ele>332.15</ele><time>2026-04-25T15:01:49.000Z</time></trkpt>
        <trkpt lat="29.333029" lon="105.2551536"><ele>332.87</ele><time>2026-04-25T15:01:53.000Z</time></trkpt>
        <trkpt lat="29.3330751" lon="105.255014"><ele>333.47</ele><time>2026-04-25T15:01:56.000Z</time></trkpt>
        <trkpt lat="29.3331034" lon="105.2548707"><ele>333.92</ele><time>2026-04-25T15:01:58.000Z</time></trkpt>
        <trkpt lat="29.3330962" lon="105.2547196"><ele>334.08</ele><time>2026-04-25T15:02:00.000Z</time></trkpt>
        <trkpt lat="29.3330547" lon="105.2545714"><ele>333.94</ele><time>2026-04-25T15:02:02.000Z</time></trkpt>
        <trkpt lat="29.3330005" lon="105.2544252"><ele>333.77</ele><time>2026-04-25T15:02:03.000Z</time></trkpt>
        <trkpt lat="29.3329697" lon="105.2542747"><ele>334.41</ele><time>2026-04-25T15:02:06.000Z</time></trkpt>
        <trkpt lat="29.3329795" lon="105.2541282"><ele>334.97</ele><time>2026-04-25T15:02:08.000Z</time></trkpt>
        <trkpt lat="29.3330689" lon="105.2540087"><ele>335.31</ele><time>2026-04-25T15:02:10.000Z</time></trkpt>
        <trkpt lat="29.3332082" lon="105.2539201"><ele>335.79</ele><time>2026-04-25T15:02:11.000Z</time></trkpt>
        <trkpt lat="29.3333525" lon="105.2538432"><ele>336.26</ele><time>2026-04-25T15:02:13.000Z</time></trkpt>
        <trkpt lat="29.3334914" lon="105.2537685"><ele>336.96</ele><time>2026-04-25T15:02:15.000Z</time></trkpt>
        <trkpt lat="29.3336178" lon="105.2537027"><ele>337.79</ele><time>2026-04-25T15:02:18.000Z</time></trkpt>
        <trkpt lat="29.3337092" lon="105.2536483"><ele>338.98</ele><time>2026-04-25T15:02:19.000Z</time></trkpt>
        <trkpt lat="29.3337885" lon="105.2535918"><ele>339.73</ele><time>2026-04-25T15:02:22.000Z</time></trkpt>
        <trkpt lat="29.3338731" lon="105.2535326"><ele>339.92</ele><time>2026-04-25T15:02:24.000Z</time></trkpt>
        <trkpt lat="29.3339658" lon="105.2534742"><ele>339.9</ele><time>2026-04-25T15:02:25.000Z</time></trkpt>
        <trkpt lat="29.3340625" lon="105.2534084"><ele>339.46</ele><time>2026-04-25T15:02:27.000Z</time></trkpt>
        <trkpt lat="29.3341624" lon="105.2533371"><ele>339.24</ele><time>2026-04-25T15:02:30.000Z</time></trkpt>
        <trkpt lat="29.3342562" lon="105.2532561"><ele>338.91</ele><time>2026-04-25T15:02:31.000Z</time></trkpt>
        <trkpt lat="29.3343375" lon="105.2531572"><ele>338.51</ele><time>2026-04-25T15:02:34.000Z</time></trkpt>
        <trkpt lat="29.3343873" lon="105.2530382"><ele>338.1</ele><time>2026-04-25T15:02:36.000Z</time></trkpt>
        <trkpt lat="29.3344114" lon="105.2529041"><ele>337.59</ele><time>2026-04-25T15:02:38.000Z</time></trkpt>
        <trkpt lat="29.3344216" lon="105.252765"><ele>337.23</ele><time>2026-04-25T15:02:39.000Z</time></trkpt>
        <trkpt lat="29.3344301" lon="105.2526221"><ele>336.67</ele><time>2026-04-25T15:02:41.000Z</time></trkpt>
        <trkpt lat="29.3344427" lon="105.2524782"><ele>336.09</ele><time>2026-04-25T15:02:43.000Z</time></trkpt>
        <trkpt lat="29.3344747" lon="105.2523349"><ele>335.59</ele><time>2026-04-25T15:02:45.000Z</time></trkpt>
        <trkpt lat="29.3345173" lon="105.2521968"><ele>334.82</ele><time>2026-04-25T15:02:47.000Z</time></trkpt>
        <trkpt lat="29.334571" lon="105.2520604"><ele>334.08</ele><time>2026-04-25T15:02:49.000Z</time></trkpt>
        <trkpt lat="29.3346377" lon="105.2519327"><ele>333.63</ele><time>2026-04-25T15:02:52.000Z</time></trkpt>
        <trkpt lat="29.3346949" lon="105.2517934"><ele>333.22</ele><time>2026-04-25T15:02:53.000Z</time></trkpt>
        <trkpt lat="29.3347354" lon="105.251659"><ele>332.59</ele><time>2026-04-25T15:02:56.000Z</time></trkpt>
        <trkpt lat="29.3347613" lon="105.2515111"><ele>331.07</ele><time>2026-04-25T15:02:58.000Z</time></trkpt>
        <trkpt lat="29.3347846" lon="105.2513394"><ele>330.19</ele><time>2026-04-25T15:03:01.000Z</time></trkpt>
        <trkpt lat="29.3347951" lon="105.2512061"><ele>329.89</ele><time>2026-04-25T15:03:06.000Z</time></trkpt>
        <trkpt lat="29.3348038" lon="105.2510973"><ele>329.76</ele><time>2026-04-25T15:03:15.000Z</time></trkpt>
        <trkpt lat="29.334822" lon="105.2509525"><ele>329.06</ele><time>2026-04-25T15:03:21.000Z</time></trkpt>
        <trkpt lat="29.3348442" lon="105.2508149"><ele>328.01</ele><time>2026-04-25T15:03:25.000Z</time></trkpt>
        <trkpt lat="29.3348763" lon="105.2506626"><ele>327.63</ele><time>2026-04-25T15:03:29.000Z</time></trkpt>
        <trkpt lat="29.3349071" lon="105.2505269"><ele>327.14</ele><time>2026-04-25T15:03:33.000Z</time></trkpt>
        <trkpt lat="29.3349443" lon="105.2503736"><ele>326.67</ele><time>2026-04-25T15:03:37.000Z</time></trkpt>
        <trkpt lat="29.3349706" lon="105.2502577"><ele>326.54</ele><time>2026-04-25T15:03:40.000Z</time></trkpt>
        <trkpt lat="29.3349929" lon="105.2501467"><ele>326.38</ele><time>2026-04-25T15:03:41.000Z</time></trkpt>
        <trkpt lat="29.3350239" lon="105.249958"><ele>326.02</ele><time>2026-04-25T15:03:45.000Z</time></trkpt>
        <trkpt lat="29.3350335" lon="105.2497493"><ele>325.31</ele><time>2026-04-25T15:03:49.000Z</time></trkpt>
        <trkpt lat="29.3350467" lon="105.2496117"><ele>324.9</ele><time>2026-04-25T15:03:51.000Z</time></trkpt>
        <trkpt lat="29.3350111" lon="105.2494391"><ele>324.49</ele><time>2026-04-25T15:03:55.000Z</time></trkpt>
        <trkpt lat="29.3349405" lon="105.2493351"><ele>324.44</ele><time>2026-04-25T15:03:57.000Z</time></trkpt>
        <trkpt lat="29.3348545" lon="105.249269"><ele>323.56</ele><time>2026-04-25T15:03:59.000Z</time></trkpt>
        <trkpt lat="29.334761" lon="105.2492163"><ele>322.96</ele><time>2026-04-25T15:04:04.000Z</time></trkpt>
        <trkpt lat="29.3347946" lon="105.2491701"><ele>322.15</ele><time>2026-04-25T15:04:17.000Z</time></trkpt>
        <trkpt lat="29.3348225" lon="105.2491608"><ele>320.92</ele><time>2026-04-25T15:04:19.000Z</time></trkpt>
        <trkpt lat="29.3347802" lon="105.2492187"><ele>320.39</ele><time>2026-04-25T15:04:39.000Z</time></trkpt>
        <trkpt lat="29.3347464" lon="105.2492385"><ele>320.62</ele><time>2026-04-25T15:04:47.000Z</time></trkpt>
        <trkpt lat="29.3346459" lon="105.2492156"><ele>320.23</ele><time>2026-04-25T15:04:55.000Z</time></trkpt>
        <trkpt lat="29.3345111" lon="105.2492018"><ele>320.32</ele><time>2026-04-25T15:04:57.000Z</time></trkpt>
        <trkpt lat="29.3343801" lon="105.2491871"><ele>320</ele><time>2026-04-25T15:04:59.000Z</time></trkpt>
        <trkpt lat="29.3342546" lon="105.249191"><ele>319.24</ele><time>2026-04-25T15:05:02.000Z</time></trkpt>
        <trkpt lat="29.3341369" lon="105.2492117"><ele>319.14</ele><time>2026-04-25T15:05:03.000Z</time></trkpt>
        <trkpt lat="29.3340293" lon="105.2492371"><ele>319.55</ele><time>2026-04-25T15:05:05.000Z</time></trkpt>
        <trkpt lat="29.3339272" lon="105.2492712"><ele>319.9</ele><time>2026-04-25T15:05:07.000Z</time></trkpt>
        <trkpt lat="29.33383" lon="105.2493066"><ele>319.73</ele><time>2026-04-25T15:05:09.000Z</time></trkpt>
        <trkpt lat="29.333731" lon="105.2493634"><ele>319.42</ele><time>2026-04-25T15:05:12.000Z</time></trkpt>
        <trkpt lat="29.3336453" lon="105.2494256"><ele>318.79</ele><time>2026-04-25T15:05:13.000Z</time></trkpt>
        <trkpt lat="29.3335178" lon="105.2495054"><ele>318.85</ele><time>2026-04-25T15:05:17.000Z</time></trkpt>
        <trkpt lat="29.3333579" lon="105.249494"><ele>319.91</ele><time>2026-04-25T15:05:21.000Z</time></trkpt>
        <trkpt lat="29.3332503" lon="105.249441"><ele>320.39</ele><time>2026-04-25T15:05:23.000Z</time></trkpt>
        <trkpt lat="29.333226" lon="105.2493381"><ele>320.4</ele><time>2026-04-25T15:05:25.000Z</time></trkpt>
        <trkpt lat="29.3332182" lon="105.2491616"><ele>320.33</ele><time>2026-04-25T15:05:29.000Z</time></trkpt>
        <trkpt lat="29.3332543" lon="105.248941"><ele>318.93</ele><time>2026-04-25T15:05:33.000Z</time></trkpt>
        <trkpt lat="29.3333041" lon="105.2487593"><ele>318.14</ele><time>2026-04-25T15:05:35.000Z</time></trkpt>
        <trkpt lat="29.3333743" lon="105.2486396"><ele>319.04</ele><time>2026-04-25T15:05:37.000Z</time></trkpt>
        <trkpt lat="29.3334414" lon="105.2485291"><ele>319.54</ele><time>2026-04-25T15:05:39.000Z</time></trkpt>
        <trkpt lat="29.3335096" lon="105.2484368"><ele>320.32</ele><time>2026-04-25T15:05:41.000Z</time></trkpt>
        <trkpt lat="29.3335769" lon="105.2483309"><ele>320.98</ele><time>2026-04-25T15:05:45.000Z</time></trkpt>
        <trkpt lat="29.3335928" lon="105.2483012"><ele>321.46</ele><time>2026-04-25T15:05:47.000Z</time></trkpt>
        <trkpt lat="29.3336638" lon="105.2483448"><ele>321.65</ele><time>2026-04-25T15:06:07.000Z</time></trkpt>
        <trkpt lat="29.3337165" lon="105.2483312"><ele>320.94</ele><time>2026-04-25T15:06:13.000Z</time></trkpt>
        <trkpt lat="29.3336549" lon="105.248331"><ele>320.95</ele><time>2026-04-25T15:06:45.000Z</time></trkpt>
        <trkpt lat="29.3336205" lon="105.248239"><ele>321.06</ele><time>2026-04-25T15:07:14.000Z</time></trkpt>
        <trkpt lat="29.333662" lon="105.2480817"><ele>320.98</ele><time>2026-04-25T15:07:17.000Z</time></trkpt>
        <trkpt lat="29.3337072" lon="105.2479457"><ele>321.25</ele><time>2026-04-25T15:07:19.000Z</time></trkpt>
        <trkpt lat="29.3337174" lon="105.2477866"><ele>321.66</ele><time>2026-04-25T15:07:21.000Z</time></trkpt>
        <trkpt lat="29.3337118" lon="105.2476204"><ele>321.75</ele><time>2026-04-25T15:07:23.000Z</time></trkpt>
        <trkpt lat="29.3337025" lon="105.2474545"><ele>321.47</ele><time>2026-04-25T15:07:25.000Z</time></trkpt>
        <trkpt lat="29.3336987" lon="105.247315"><ele>320.89</ele><time>2026-04-25T15:07:27.000Z</time></trkpt>
        <trkpt lat="29.3337232" lon="105.2471828"><ele>320.51</ele><time>2026-04-25T15:07:29.000Z</time></trkpt>
        <trkpt lat="29.3337694" lon="105.2470619"><ele>320.38</ele><time>2026-04-25T15:07:31.000Z</time></trkpt>
        <trkpt lat="29.3338047" lon="105.2469407"><ele>320.41</ele><time>2026-04-25T15:07:33.000Z</time></trkpt>
        <trkpt lat="29.3338013" lon="105.2468303"><ele>320.33</ele><time>2026-04-25T15:07:35.000Z</time></trkpt>
        <trkpt lat="29.3337413" lon="105.2467381"><ele>320.47</ele><time>2026-04-25T15:07:37.000Z</time></trkpt>
        <trkpt lat="29.3336345" lon="105.2466634"><ele>320.78</ele><time>2026-04-25T15:07:39.000Z</time></trkpt>
        <trkpt lat="29.3334894" lon="105.2465957"><ele>320.85</ele><time>2026-04-25T15:07:41.000Z</time></trkpt>
        <trkpt lat="29.3333243" lon="105.2465312"><ele>320.89</ele><time>2026-04-25T15:07:43.000Z</time></trkpt>
        <trkpt lat="29.3331627" lon="105.2464617"><ele>321.51</ele><time>2026-04-25T15:07:45.000Z</time></trkpt>
        <trkpt lat="29.3330117" lon="105.2463919"><ele>321.96</ele><time>2026-04-25T15:07:48.000Z</time></trkpt>
        <trkpt lat="29.3328691" lon="105.2463251"><ele>322.34</ele><time>2026-04-25T15:07:50.000Z</time></trkpt>
        <trkpt lat="29.3327315" lon="105.2462622"><ele>322.62</ele><time>2026-04-25T15:07:51.000Z</time></trkpt>
        <trkpt lat="29.3325963" lon="105.2462169"><ele>322.61</ele><time>2026-04-25T15:07:53.000Z</time></trkpt>
        <trkpt lat="29.3324631" lon="105.246201"><ele>322.49</ele><time>2026-04-25T15:07:55.000Z</time></trkpt>
        <trkpt lat="29.3323255" lon="105.2461986"><ele>322.52</ele><time>2026-04-25T15:07:57.000Z</time></trkpt>
        <trkpt lat="29.332208" lon="105.2461943"><ele>322.55</ele><time>2026-04-25T15:07:59.000Z</time></trkpt>
        <trkpt lat="29.3321145" lon="105.2461736"><ele>321.75</ele><time>2026-04-25T15:08:01.000Z</time></trkpt>
        <trkpt lat="29.3319837" lon="105.2461613"><ele>320.68</ele><time>2026-04-25T15:08:06.000Z</time></trkpt>
        <trkpt lat="29.3318738" lon="105.2461754"><ele>320.02</ele><time>2026-04-25T15:08:07.000Z</time></trkpt>
        <trkpt lat="29.3317651" lon="105.2462231"><ele>319.51</ele><time>2026-04-25T15:08:09.000Z</time></trkpt>
        <trkpt lat="29.3316443" lon="105.2462768"><ele>319.2</ele><time>2026-04-25T15:08:11.000Z</time></trkpt>
        <trkpt lat="29.331504" lon="105.2462814"><ele>319.03</ele><time>2026-04-25T15:08:13.000Z</time></trkpt>
        <trkpt lat="29.3313592" lon="105.2462512"><ele>319.08</ele><time>2026-04-25T15:08:16.000Z</time></trkpt>
        <trkpt lat="29.331214" lon="105.2462125"><ele>319.09</ele><time>2026-04-25T15:08:17.000Z</time></trkpt>
        <trkpt lat="29.3310706" lon="105.2461765"><ele>319.14</ele><time>2026-04-25T15:08:19.000Z</time></trkpt>
        <trkpt lat="29.3309072" lon="105.2461632"><ele>319.16</ele><time>2026-04-25T15:08:21.000Z</time></trkpt>
        <trkpt lat="29.3307376" lon="105.2461749"><ele>319.37</ele><time>2026-04-25T15:08:23.000Z</time></trkpt>
        <trkpt lat="29.3305696" lon="105.2461949"><ele>321.06</ele><time>2026-04-25T15:08:25.000Z</time></trkpt>
        <trkpt lat="29.3304033" lon="105.2462181"><ele>323.29</ele><time>2026-04-25T15:08:27.000Z</time></trkpt>
        <trkpt lat="29.3302396" lon="105.2462457"><ele>325.41</ele><time>2026-04-25T15:08:29.000Z</time></trkpt>
        <trkpt lat="29.3300892" lon="105.2462971"><ele>327.84</ele><time>2026-04-25T15:08:31.000Z</time></trkpt>
        <trkpt lat="29.3299609" lon="105.2463533"><ele>329.81</ele><time>2026-04-25T15:08:33.000Z</time></trkpt>
        <trkpt lat="29.3298493" lon="105.246374"><ele>331.02</ele><time>2026-04-25T15:08:35.000Z</time></trkpt>
        <trkpt lat="29.3297547" lon="105.246348"><ele>332.19</ele><time>2026-04-25T15:08:37.000Z</time></trkpt>
        <trkpt lat="29.3296643" lon="105.2462851"><ele>333.07</ele><time>2026-04-25T15:08:41.000Z</time></trkpt>
        <trkpt lat="29.3296341" lon="105.2462519"><ele>333.41</ele><time>2026-04-25T15:08:45.000Z</time></trkpt>
        <trkpt lat="29.3295281" lon="105.2462224"><ele>333.77</ele><time>2026-04-25T15:08:55.000Z</time></trkpt>
        <trkpt lat="29.3294659" lon="105.2461961"><ele>334.22</ele><time>2026-04-25T15:09:01.000Z</time></trkpt>
        <trkpt lat="29.3293745" lon="105.2462023"><ele>334.07</ele><time>2026-04-25T15:09:12.000Z</time></trkpt>
        <trkpt lat="29.3292792" lon="105.2462305"><ele>334.28</ele><time>2026-04-25T15:09:13.000Z</time></trkpt>
        <trkpt lat="29.3291686" lon="105.2462545"><ele>334.5</ele><time>2026-04-25T15:09:15.000Z</time></trkpt>
        <trkpt lat="29.3290373" lon="105.2462848"><ele>334.65</ele><time>2026-04-25T15:09:19.000Z</time></trkpt>
        <trkpt lat="29.3289913" lon="105.2462888"><ele>335.11</ele><time>2026-04-25T15:09:25.000Z</time></trkpt>
        <trkpt lat="29.3289245" lon="105.2463329"><ele>334.99</ele><time>2026-04-25T15:09:33.000Z</time></trkpt>
        <trkpt lat="29.3288347" lon="105.2463904"><ele>335.06</ele><time>2026-04-25T15:09:35.000Z</time></trkpt>
        <trkpt lat="29.3287435" lon="105.24645"><ele>335.26</ele><time>2026-04-25T15:09:37.000Z</time></trkpt>
        <trkpt lat="29.32865" lon="105.2465053"><ele>335.54</ele><time>2026-04-25T15:09:39.000Z</time></trkpt>
        <trkpt lat="29.3285612" lon="105.2465661"><ele>335.85</ele><time>2026-04-25T15:09:42.000Z</time></trkpt>
        <trkpt lat="29.3284363" lon="105.2466957"><ele>336.53</ele><time>2026-04-25T15:09:45.000Z</time></trkpt>
        <trkpt lat="29.3283488" lon="105.246811"><ele>337.38</ele><time>2026-04-25T15:09:47.000Z</time></trkpt>
        <trkpt lat="29.3282793" lon="105.2469178"><ele>338.25</ele><time>2026-04-25T15:09:49.000Z</time></trkpt>
        <trkpt lat="29.3282159" lon="105.2470227"><ele>339.16</ele><time>2026-04-25T15:09:51.000Z</time></trkpt>
        <trkpt lat="29.3281542" lon="105.2471303"><ele>340.09</ele><time>2026-04-25T15:09:53.000Z</time></trkpt>
        <trkpt lat="29.3280927" lon="105.2472401"><ele>340.98</ele><time>2026-04-25T15:09:55.000Z</time></trkpt>
        <trkpt lat="29.328031" lon="105.2473508"><ele>341.81</ele><time>2026-04-25T15:09:57.000Z</time></trkpt>
        <trkpt lat="29.3279705" lon="105.2474588"><ele>342.41</ele><time>2026-04-25T15:09:59.000Z</time></trkpt>
        <trkpt lat="29.3279051" lon="105.2475655"><ele>342.99</ele><time>2026-04-25T15:10:02.000Z</time></trkpt>
        <trkpt lat="29.3278246" lon="105.2476678"><ele>343.54</ele><time>2026-04-25T15:10:03.000Z</time></trkpt>
        <trkpt lat="29.3277081" lon="105.2477497"><ele>343.8</ele><time>2026-04-25T15:10:05.000Z</time></trkpt>
        <trkpt lat="29.3275775" lon="105.247816"><ele>343.63</ele><time>2026-04-25T15:10:07.000Z</time></trkpt>
        <trkpt lat="29.3274365" lon="105.2478479"><ele>343.67</ele><time>2026-04-25T15:10:09.000Z</time></trkpt>
        <trkpt lat="29.3272979" lon="105.2478544"><ele>343.78</ele><time>2026-04-25T15:10:11.000Z</time></trkpt>
        <trkpt lat="29.3271792" lon="105.2478388"><ele>343.76</ele><time>2026-04-25T15:10:13.000Z</time></trkpt>
        <trkpt lat="29.3270748" lon="105.2478138"><ele>343.19</ele><time>2026-04-25T15:10:15.000Z</time></trkpt>
        <trkpt lat="29.32697" lon="105.2477907"><ele>342.77</ele><time>2026-04-25T15:10:17.000Z</time></trkpt>
        <trkpt lat="29.3268578" lon="105.2477812"><ele>341.96</ele><time>2026-04-25T15:10:19.000Z</time></trkpt>
        <trkpt lat="29.3267352" lon="105.2477796"><ele>341.17</ele><time>2026-04-25T15:10:21.000Z</time></trkpt>
        <trkpt lat="29.3266002" lon="105.2477777"><ele>341.04</ele><time>2026-04-25T15:10:23.000Z</time></trkpt>
        <trkpt lat="29.3264536" lon="105.2477706"><ele>341.28</ele><time>2026-04-25T15:10:25.000Z</time></trkpt>
        <trkpt lat="29.3262993" lon="105.2477568"><ele>341.29</ele><time>2026-04-25T15:10:27.000Z</time></trkpt>
        <trkpt lat="29.3261396" lon="105.2477228"><ele>340.99</ele><time>2026-04-25T15:10:29.000Z</time></trkpt>
        <trkpt lat="29.3259862" lon="105.2476866"><ele>340.36</ele><time>2026-04-25T15:10:31.000Z</time></trkpt>
        <trkpt lat="29.3258433" lon="105.2476892"><ele>339.24</ele><time>2026-04-25T15:10:33.000Z</time></trkpt>
        <trkpt lat="29.3256971" lon="105.2477313"><ele>338.43</ele><time>2026-04-25T15:10:35.000Z</time></trkpt>
        <trkpt lat="29.3255375" lon="105.2477621"><ele>337.43</ele><time>2026-04-25T15:10:37.000Z</time></trkpt>
        <trkpt lat="29.3253687" lon="105.2477718"><ele>336.25</ele><time>2026-04-25T15:10:40.000Z</time></trkpt>
        <trkpt lat="29.3251981" lon="105.2477538"><ele>334.76</ele><time>2026-04-25T15:10:41.000Z</time></trkpt>
        <trkpt lat="29.3250276" lon="105.24773"><ele>332.95</ele><time>2026-04-25T15:10:43.000Z</time></trkpt>
        <trkpt lat="29.3248601" lon="105.2477641"><ele>331.33</ele><time>2026-04-25T15:10:45.000Z</time></trkpt>
        <trkpt lat="29.3247147" lon="105.2478885"><ele>329.33</ele><time>2026-04-25T15:10:47.000Z</time></trkpt>
        <trkpt lat="29.3246167" lon="105.2480745"><ele>327.38</ele><time>2026-04-25T15:10:50.000Z</time></trkpt>
        <trkpt lat="29.324539" lon="105.2482726"><ele>325.55</ele><time>2026-04-25T15:10:51.000Z</time></trkpt>
        <trkpt lat="29.3244478" lon="105.2484381"><ele>324.82</ele><time>2026-04-25T15:10:53.000Z</time></trkpt>
        <trkpt lat="29.3243143" lon="105.2485469"><ele>324.07</ele><time>2026-04-25T15:10:55.000Z</time></trkpt>
        <trkpt lat="29.3241609" lon="105.2486275"><ele>323.03</ele><time>2026-04-25T15:10:58.000Z</time></trkpt>
        <trkpt lat="29.3239909" lon="105.248699"><ele>321.6</ele><time>2026-04-25T15:10:59.000Z</time></trkpt>
        <trkpt lat="29.3238225" lon="105.2487882"><ele>319.79</ele><time>2026-04-25T15:11:01.000Z</time></trkpt>
        <trkpt lat="29.3236671" lon="105.2489028"><ele>318.22</ele><time>2026-04-25T15:11:03.000Z</time></trkpt>
        <trkpt lat="29.3235173" lon="105.2490341"><ele>316.6</ele><time>2026-04-25T15:11:05.000Z</time></trkpt>
        <trkpt lat="29.3233734" lon="105.2491806"><ele>315.11</ele><time>2026-04-25T15:11:07.000Z</time></trkpt>
        <trkpt lat="29.3232269" lon="105.2493367"><ele>313.73</ele><time>2026-04-25T15:11:09.000Z</time></trkpt>
        <trkpt lat="29.3230736" lon="105.2494965"><ele>312.22</ele><time>2026-04-25T15:11:11.000Z</time></trkpt>
        <trkpt lat="29.3229021" lon="105.2496266"><ele>310.49</ele><time>2026-04-25T15:11:13.000Z</time></trkpt>
        <trkpt lat="29.3227098" lon="105.2496662"><ele>308.9</ele><time>2026-04-25T15:11:15.000Z</time></trkpt>
        <trkpt lat="29.322523" lon="105.2496216"><ele>307.62</ele><time>2026-04-25T15:11:18.000Z</time></trkpt>
        <trkpt lat="29.3223731" lon="105.2495128"><ele>306.03</ele><time>2026-04-25T15:11:19.000Z</time></trkpt>
        <trkpt lat="29.3222416" lon="105.2493574"><ele>304.67</ele><time>2026-04-25T15:11:21.000Z</time></trkpt>
        <trkpt lat="29.3221256" lon="105.2491953"><ele>303.25</ele><time>2026-04-25T15:11:23.000Z</time></trkpt>
        <trkpt lat="29.3220371" lon="105.249037"><ele>301.64</ele><time>2026-04-25T15:11:25.000Z</time></trkpt>
        <trkpt lat="29.3219744" lon="105.2488765"><ele>300.37</ele><time>2026-04-25T15:11:27.000Z</time></trkpt>
        <trkpt lat="29.321942" lon="105.2487068"><ele>298.73</ele><time>2026-04-25T15:11:29.000Z</time></trkpt>
        <trkpt lat="29.3219476" lon="105.2485598"><ele>296.85</ele><time>2026-04-25T15:11:31.000Z</time></trkpt>
        <trkpt lat="29.3219621" lon="105.2483891"><ele>295.13</ele><time>2026-04-25T15:11:35.000Z</time></trkpt>
        <trkpt lat="29.3219871" lon="105.2482657"><ele>293.41</ele><time>2026-04-25T15:11:41.000Z</time></trkpt>
        <trkpt lat="29.3219977" lon="105.2481511"><ele>291.73</ele><time>2026-04-25T15:12:18.000Z</time></trkpt>
        <trkpt lat="29.3220144" lon="105.248006"><ele>291.04</ele><time>2026-04-25T15:12:29.000Z</time></trkpt>
        <trkpt lat="29.3220299" lon="105.2478718"><ele>290.72</ele><time>2026-04-25T15:12:31.000Z</time></trkpt>
        <trkpt lat="29.3220435" lon="105.2477334"><ele>290.37</ele><time>2026-04-25T15:12:33.000Z</time></trkpt>
        <trkpt lat="29.3220559" lon="105.2475891"><ele>290.17</ele><time>2026-04-25T15:12:35.000Z</time></trkpt>
        <trkpt lat="29.3220634" lon="105.2474294"><ele>290.02</ele><time>2026-04-25T15:12:37.000Z</time></trkpt>
        <trkpt lat="29.3220492" lon="105.2472659"><ele>289.94</ele><time>2026-04-25T15:12:39.000Z</time></trkpt>
        <trkpt lat="29.3220167" lon="105.2471001"><ele>289.99</ele><time>2026-04-25T15:12:41.000Z</time></trkpt>
        <trkpt lat="29.3219772" lon="105.2469394"><ele>290.02</ele><time>2026-04-25T15:12:44.000Z</time></trkpt>
        <trkpt lat="29.3219733" lon="105.2467853"><ele>289.92</ele><time>2026-04-25T15:12:45.000Z</time></trkpt>
        <trkpt lat="29.3220162" lon="105.2466408"><ele>289.59</ele><time>2026-04-25T15:12:47.000Z</time></trkpt>
        <trkpt lat="29.3220759" lon="105.2465073"><ele>288.97</ele><time>2026-04-25T15:12:49.000Z</time></trkpt>
        <trkpt lat="29.322135" lon="105.2463929"><ele>288.29</ele><time>2026-04-25T15:12:51.000Z</time></trkpt>
        <trkpt lat="29.3221869" lon="105.2462876"><ele>287.62</ele><time>2026-04-25T15:12:53.000Z</time></trkpt>
        <trkpt lat="29.3222367" lon="105.2461843"><ele>286.83</ele><time>2026-04-25T15:12:55.000Z</time></trkpt>
        <trkpt lat="29.3222787" lon="105.2461138"><ele>286.12</ele><time>2026-04-25T15:12:59.000Z</time></trkpt>
        <trkpt lat="29.3223179" lon="105.2460033"><ele>285.57</ele><time>2026-04-25T15:13:15.000Z</time></trkpt>
        <trkpt lat="29.3223616" lon="105.245891"><ele>284.7</ele><time>2026-04-25T15:13:17.000Z</time></trkpt>
        <trkpt lat="29.3224102" lon="105.2457713"><ele>284.1</ele><time>2026-04-25T15:13:19.000Z</time></trkpt>
        <trkpt lat="29.3224625" lon="105.2456374"><ele>283.81</ele><time>2026-04-25T15:13:21.000Z</time></trkpt>
        <trkpt lat="29.3225219" lon="105.2454974"><ele>283.67</ele><time>2026-04-25T15:13:23.000Z</time></trkpt>
        <trkpt lat="29.3225837" lon="105.2453584"><ele>283.62</ele><time>2026-04-25T15:13:25.000Z</time></trkpt>
        <trkpt lat="29.3226417" lon="105.2452284"><ele>283.36</ele><time>2026-04-25T15:13:27.000Z</time></trkpt>
        <trkpt lat="29.3227045" lon="105.2451003"><ele>283</ele><time>2026-04-25T15:13:29.000Z</time></trkpt>
        <trkpt lat="29.3227697" lon="105.2449738"><ele>282.54</ele><time>2026-04-25T15:13:31.000Z</time></trkpt>
        <trkpt lat="29.3228394" lon="105.2448504"><ele>282.47</ele><time>2026-04-25T15:13:33.000Z</time></trkpt>
        <trkpt lat="29.3228867" lon="105.2447276"><ele>282.4</ele><time>2026-04-25T15:13:35.000Z</time></trkpt>
        <trkpt lat="29.3228708" lon="105.2446019"><ele>282.62</ele><time>2026-04-25T15:13:37.000Z</time></trkpt>
        <trkpt lat="29.3227977" lon="105.2444885"><ele>283.21</ele><time>2026-04-25T15:13:39.000Z</time></trkpt>
        <trkpt lat="29.3227111" lon="105.244392"><ele>283.83</ele><time>2026-04-25T15:13:41.000Z</time></trkpt>
        <trkpt lat="29.322624" lon="105.2443134"><ele>284.3</ele><time>2026-04-25T15:13:43.000Z</time></trkpt>
        <trkpt lat="29.322503" lon="105.2441963"><ele>284.81</ele><time>2026-04-25T15:13:47.000Z</time></trkpt>
        <trkpt lat="29.3223456" lon="105.2440968"><ele>285.08</ele><time>2026-04-25T15:13:51.000Z</time></trkpt>
        <trkpt lat="29.3221683" lon="105.2440477"><ele>285</ele><time>2026-04-25T15:13:55.000Z</time></trkpt>
        <trkpt lat="29.3220511" lon="105.2440265"><ele>284.81</ele><time>2026-04-25T15:13:57.000Z</time></trkpt>
        <trkpt lat="29.321958" lon="105.2440135"><ele>284.69</ele><time>2026-04-25T15:13:59.000Z</time></trkpt>
        <trkpt lat="29.3218672" lon="105.2440018"><ele>284.64</ele><time>2026-04-25T15:14:01.000Z</time></trkpt>
        <trkpt lat="29.3217641" lon="105.2439851"><ele>284.67</ele><time>2026-04-25T15:14:03.000Z</time></trkpt>
        <trkpt lat="29.3216502" lon="105.2439627"><ele>284.67</ele><time>2026-04-25T15:14:05.000Z</time></trkpt>
        <trkpt lat="29.3215245" lon="105.243938"><ele>284.8</ele><time>2026-04-25T15:14:07.000Z</time></trkpt>
        <trkpt lat="29.3213963" lon="105.2439053"><ele>284.72</ele><time>2026-04-25T15:14:09.000Z</time></trkpt>
        <trkpt lat="29.3212719" lon="105.2438772"><ele>284.91</ele><time>2026-04-25T15:14:12.000Z</time></trkpt>
        <trkpt lat="29.3211592" lon="105.2438536"><ele>285.07</ele><time>2026-04-25T15:14:13.000Z</time></trkpt>
        <trkpt lat="29.321053" lon="105.2438296"><ele>285.27</ele><time>2026-04-25T15:14:16.000Z</time></trkpt>
        <trkpt lat="29.3209438" lon="105.2437994"><ele>285.47</ele><time>2026-04-25T15:14:17.000Z</time></trkpt>
        <trkpt lat="29.3208403" lon="105.2437676"><ele>285.57</ele><time>2026-04-25T15:14:19.000Z</time></trkpt>
        <trkpt lat="29.3207449" lon="105.2437429"><ele>285.52</ele><time>2026-04-25T15:14:21.000Z</time></trkpt>
        <trkpt lat="29.3206526" lon="105.2437177"><ele>285.34</ele><time>2026-04-25T15:14:24.000Z</time></trkpt>
        <trkpt lat="29.3205596" lon="105.2436906"><ele>285.14</ele><time>2026-04-25T15:14:25.000Z</time></trkpt>
        <trkpt lat="29.3204663" lon="105.2436681"><ele>284.89</ele><time>2026-04-25T15:14:27.000Z</time></trkpt>
        <trkpt lat="29.3203716" lon="105.2436532"><ele>284.75</ele><time>2026-04-25T15:14:29.000Z</time></trkpt>
        <trkpt lat="29.3202702" lon="105.2436476"><ele>284.56</ele><time>2026-04-25T15:14:31.000Z</time></trkpt>
        <trkpt lat="29.3201605" lon="105.2436552"><ele>284.54</ele><time>2026-04-25T15:14:33.000Z</time></trkpt>
        <trkpt lat="29.3200582" lon="105.2436823"><ele>284.68</ele><time>2026-04-25T15:14:35.000Z</time></trkpt>
        <trkpt lat="29.3199607" lon="105.2437227"><ele>285.07</ele><time>2026-04-25T15:14:38.000Z</time></trkpt>
        <trkpt lat="29.3198725" lon="105.2437687"><ele>285.34</ele><time>2026-04-25T15:14:39.000Z</time></trkpt>
        <trkpt lat="29.3197885" lon="105.2438211"><ele>285.64</ele><time>2026-04-25T15:14:41.000Z</time></trkpt>
        <trkpt lat="29.3197075" lon="105.2438754"><ele>285.69</ele><time>2026-04-25T15:14:43.000Z</time></trkpt>
        <trkpt lat="29.3195704" lon="105.2439486"><ele>285.85</ele><time>2026-04-25T15:14:47.000Z</time></trkpt>
        <trkpt lat="29.3194659" lon="105.2439948"><ele>285.47</ele><time>2026-04-25T15:14:50.000Z</time></trkpt>
        <trkpt lat="29.3193744" lon="105.2440273"><ele>285.33</ele><time>2026-04-25T15:14:51.000Z</time></trkpt>
        <trkpt lat="29.3192804" lon="105.2440526"><ele>285.15</ele><time>2026-04-25T15:14:54.000Z</time></trkpt>
        <trkpt lat="29.3191836" lon="105.2440763"><ele>284.96</ele><time>2026-04-25T15:14:56.000Z</time></trkpt>
        <trkpt lat="29.319084" lon="105.2441092"><ele>285.01</ele><time>2026-04-25T15:14:57.000Z</time></trkpt>
        <trkpt lat="29.3189752" lon="105.2441381"><ele>285.1</ele><time>2026-04-25T15:14:59.000Z</time></trkpt>
        <trkpt lat="29.3188581" lon="105.2441677"><ele>285.1</ele><time>2026-04-25T15:15:01.000Z</time></trkpt>
        <trkpt lat="29.3187381" lon="105.2442032"><ele>284.95</ele><time>2026-04-25T15:15:03.000Z</time></trkpt>
        <trkpt lat="29.3186159" lon="105.2442364"><ele>284.75</ele><time>2026-04-25T15:15:06.000Z</time></trkpt>
        <trkpt lat="29.3186159" lon="105.2442364"><ele>284.75</ele><time>2026-04-25T15:15:06.000Z</time></trkpt>
      </trkseg>
      <trkseg>
        <trkpt lat="29.3246903" lon="105.248047"><ele>324.37</ele><time>2026-04-25T19:02:38.000Z</time></trkpt>
        <trkpt lat="29.3246903" lon="105.248047"><ele>324.37</ele><time>2026-04-25T19:02:39.000Z</time></trkpt>
        <trkpt lat="29.3247709" lon="105.2478844"><ele>324.37</ele><time>2026-04-25T19:02:41.000Z</time></trkpt>
        <trkpt lat="29.3249006" lon="105.247749"><ele>324.01</ele><time>2026-04-25T19:02:43.000Z</time></trkpt>
        <trkpt lat="29.3250726" lon="105.2476992"><ele>324.31</ele><time>2026-04-25T19:02:45.000Z</time></trkpt>
        <trkpt lat="29.325251" lon="105.2477094"><ele>325.69</ele><time>2026-04-25T19:02:47.000Z</time></trkpt>
        <trkpt lat="29.3254307" lon="105.2477378"><ele>327.76</ele><time>2026-04-25T19:02:49.000Z</time></trkpt>
        <trkpt lat="29.3256041" lon="105.2477393"><ele>329.68</ele><time>2026-04-25T19:02:51.000Z</time></trkpt>
        <trkpt lat="29.3257745" lon="105.2477147"><ele>331.39</ele><time>2026-04-25T19:02:53.000Z</time></trkpt>
        <trkpt lat="29.3259143" lon="105.2476826"><ele>333.37</ele><time>2026-04-25T19:02:55.000Z</time></trkpt>
        <trkpt lat="29.3260313" lon="105.247676"><ele>335.2</ele><time>2026-04-25T19:02:57.000Z</time></trkpt>
        <trkpt lat="29.3261534" lon="105.247705"><ele>336.45</ele><time>2026-04-25T19:02:59.000Z</time></trkpt>
        <trkpt lat="29.3262881" lon="105.2477437"><ele>337.82</ele><time>2026-04-25T19:03:01.000Z</time></trkpt>
        <trkpt lat="29.32643" lon="105.2477628"><ele>339.12</ele><time>2026-04-25T19:03:03.000Z</time></trkpt>
        <trkpt lat="29.326571" lon="105.2477638"><ele>340.28</ele><time>2026-04-25T19:03:05.000Z</time></trkpt>
        <trkpt lat="29.3267168" lon="105.2477706"><ele>341.09</ele><time>2026-04-25T19:03:07.000Z</time></trkpt>
        <trkpt lat="29.326867" lon="105.247765"><ele>341.19</ele><time>2026-04-25T19:03:09.000Z</time></trkpt>
        <trkpt lat="29.3270144" lon="105.2477599"><ele>341.01</ele><time>2026-04-25T19:03:11.000Z</time></trkpt>
        <trkpt lat="29.3271665" lon="105.2477812"><ele>341.06</ele><time>2026-04-25T19:03:13.000Z</time></trkpt>
        <trkpt lat="29.3273197" lon="105.2478008"><ele>341.18</ele><time>2026-04-25T19:03:15.000Z</time></trkpt>
        <trkpt lat="29.3274743" lon="105.247796"><ele>341.38</ele><time>2026-04-25T19:03:17.000Z</time></trkpt>
        <trkpt lat="29.3276269" lon="105.2477585"><ele>341.55</ele><time>2026-04-25T19:03:19.000Z</time></trkpt>
        <trkpt lat="29.3277682" lon="105.2476844"><ele>342.03</ele><time>2026-04-25T19:03:21.000Z</time></trkpt>
        <trkpt lat="29.3278774" lon="105.2476016"><ele>342.65</ele><time>2026-04-25T19:03:23.000Z</time></trkpt>
        <trkpt lat="29.327959" lon="105.2475013"><ele>343.04</ele><time>2026-04-25T19:03:25.000Z</time></trkpt>
        <trkpt lat="29.3280277" lon="105.2473701"><ele>343.55</ele><time>2026-04-25T19:03:27.000Z</time></trkpt>
        <trkpt lat="29.3280927" lon="105.247234"><ele>343.47</ele><time>2026-04-25T19:03:29.000Z</time></trkpt>
        <trkpt lat="29.3281688" lon="105.247104"><ele>343.51</ele><time>2026-04-25T19:03:31.000Z</time></trkpt>
        <trkpt lat="29.3282558" lon="105.2469495"><ele>343.24</ele><time>2026-04-25T19:03:33.000Z</time></trkpt>
        <trkpt lat="29.3283647" lon="105.2467864"><ele>342.7</ele><time>2026-04-25T19:03:35.000Z</time></trkpt>
        <trkpt lat="29.3285007" lon="105.2466072"><ele>341.88</ele><time>2026-04-25T19:03:37.000Z</time></trkpt>
        <trkpt lat="29.3286737" lon="105.2464436"><ele>340.44</ele><time>2026-04-25T19:03:39.000Z</time></trkpt>
        <trkpt lat="29.3288755" lon="105.2463176"><ele>338.83</ele><time>2026-04-25T19:03:41.000Z</time></trkpt>
        <trkpt lat="29.3290871" lon="105.2462327"><ele>337.7</ele><time>2026-04-25T19:03:43.000Z</time></trkpt>
        <trkpt lat="29.3293112" lon="105.2461894"><ele>336.69</ele><time>2026-04-25T19:03:45.000Z</time></trkpt>
        <trkpt lat="29.3294967" lon="105.2461838"><ele>335.76</ele><time>2026-04-25T19:03:47.000Z</time></trkpt>
        <trkpt lat="29.3296193" lon="105.2461961"><ele>335.29</ele><time>2026-04-25T19:03:49.000Z</time></trkpt>
        <trkpt lat="29.3297071" lon="105.246233"><ele>334.98</ele><time>2026-04-25T19:03:51.000Z</time></trkpt>
        <trkpt lat="29.3297938" lon="105.2462877"><ele>334.56</ele><time>2026-04-25T19:03:53.000Z</time></trkpt>
        <trkpt lat="29.3298984" lon="105.2463383"><ele>334.09</ele><time>2026-04-25T19:03:55.000Z</time></trkpt>
        <trkpt lat="29.3300309" lon="105.2463325"><ele>333.8</ele><time>2026-04-25T19:03:57.000Z</time></trkpt>
        <trkpt lat="29.3301698" lon="105.2462769"><ele>333.23</ele><time>2026-04-25T19:03:59.000Z</time></trkpt>
        <trkpt lat="29.3302984" lon="105.2462271"><ele>332.6</ele><time>2026-04-25T19:04:01.000Z</time></trkpt>
        <trkpt lat="29.3304194" lon="105.2461907"><ele>331.58</ele><time>2026-04-25T19:04:03.000Z</time></trkpt>
        <trkpt lat="29.3305394" lon="105.2461661"><ele>330.07</ele><time>2026-04-25T19:04:05.000Z</time></trkpt>
        <trkpt lat="29.3306665" lon="105.2461504"><ele>328.55</ele><time>2026-04-25T19:04:07.000Z</time></trkpt>
        <trkpt lat="29.3307945" lon="105.2461439"><ele>326.7</ele><time>2026-04-25T19:04:09.000Z</time></trkpt>
        <trkpt lat="29.3309011" lon="105.2461422"><ele>324.81</ele><time>2026-04-25T19:04:11.000Z</time></trkpt>
        <trkpt lat="29.3310525" lon="105.2461276"><ele>323.17</ele><time>2026-04-25T19:04:15.000Z</time></trkpt>
        <trkpt lat="29.3312158" lon="105.2461625"><ele>321.94</ele><time>2026-04-25T19:04:17.000Z</time></trkpt>
        <trkpt lat="29.3313933" lon="105.2462158"><ele>321.2</ele><time>2026-04-25T19:04:19.000Z</time></trkpt>
        <trkpt lat="29.3315629" lon="105.2462515"><ele>320.76</ele><time>2026-04-25T19:04:21.000Z</time></trkpt>
        <trkpt lat="29.3317132" lon="105.2462364"><ele>320.79</ele><time>2026-04-25T19:04:23.000Z</time></trkpt>
        <trkpt lat="29.3318421" lon="105.2461847"><ele>320.78</ele><time>2026-04-25T19:04:25.000Z</time></trkpt>
        <trkpt lat="29.3319606" lon="105.2461375"><ele>320.81</ele><time>2026-04-25T19:04:27.000Z</time></trkpt>
        <trkpt lat="29.3320792" lon="105.2461283"><ele>320.86</ele><time>2026-04-25T19:04:29.000Z</time></trkpt>
        <trkpt lat="29.3322272" lon="105.2461487"><ele>320.85</ele><time>2026-04-25T19:04:31.000Z</time></trkpt>
        <trkpt lat="29.3324014" lon="105.2461829"><ele>320.4</ele><time>2026-04-25T19:04:33.000Z</time></trkpt>
        <trkpt lat="29.332579" lon="105.2462"><ele>320.32</ele><time>2026-04-25T19:04:35.000Z</time></trkpt>
        <trkpt lat="29.332765" lon="105.2462694"><ele>320.25</ele><time>2026-04-25T19:04:37.000Z</time></trkpt>
        <trkpt lat="29.3329733" lon="105.2463461"><ele>320.21</ele><time>2026-04-25T19:04:39.000Z</time></trkpt>
        <trkpt lat="29.3331853" lon="105.2464462"><ele>320.6</ele><time>2026-04-25T19:04:41.000Z</time></trkpt>
        <trkpt lat="29.3333816" lon="105.2465472"><ele>321.24</ele><time>2026-04-25T19:04:43.000Z</time></trkpt>
        <trkpt lat="29.3335773" lon="105.2466406"><ele>321.62</ele><time>2026-04-25T19:04:45.000Z</time></trkpt>
        <trkpt lat="29.3337384" lon="105.246737"><ele>321.88</ele><time>2026-04-25T19:04:47.000Z</time></trkpt>
        <trkpt lat="29.3338314" lon="105.2468744"><ele>321.81</ele><time>2026-04-25T19:04:49.000Z</time></trkpt>
        <trkpt lat="29.3338215" lon="105.2470583"><ele>321.9</ele><time>2026-04-25T19:04:51.000Z</time></trkpt>
        <trkpt lat="29.3337486" lon="105.2472515"><ele>321.57</ele><time>2026-04-25T19:04:53.000Z</time></trkpt>
        <trkpt lat="29.3337056" lon="105.2474559"><ele>321.12</ele><time>2026-04-25T19:04:55.000Z</time></trkpt>
        <trkpt lat="29.3336959" lon="105.2476849"><ele>320.85</ele><time>2026-04-25T19:04:57.000Z</time></trkpt>
        <trkpt lat="29.3336812" lon="105.247897"><ele>320.54</ele><time>2026-04-25T19:04:59.000Z</time></trkpt>
        <trkpt lat="29.3336505" lon="105.2481024"><ele>320.5</ele><time>2026-04-25T19:05:01.000Z</time></trkpt>
        <trkpt lat="29.3336133" lon="105.2482749"><ele>320.77</ele><time>2026-04-25T19:05:03.000Z</time></trkpt>
        <trkpt lat="29.3335245" lon="105.2484328"><ele>320.96</ele><time>2026-04-25T19:05:05.000Z</time></trkpt>
        <trkpt lat="29.3334325" lon="105.2485907"><ele>321.57</ele><time>2026-04-25T19:05:07.000Z</time></trkpt>
        <trkpt lat="29.3333585" lon="105.2487348"><ele>322.85</ele><time>2026-04-25T19:05:09.000Z</time></trkpt>
        <trkpt lat="29.3333119" lon="105.2488854"><ele>322.88</ele><time>2026-04-25T19:05:11.000Z</time></trkpt>
        <trkpt lat="29.3332687" lon="105.2490099"><ele>322.89</ele><time>2026-04-25T19:05:13.000Z</time></trkpt>
        <trkpt lat="29.3332459" lon="105.2491586"><ele>323.44</ele><time>2026-04-25T19:05:15.000Z</time></trkpt>
        <trkpt lat="29.3332411" lon="105.2492968"><ele>324.52</ele><time>2026-04-25T19:05:17.000Z</time></trkpt>
        <trkpt lat="29.3332661" lon="105.2494139"><ele>324.25</ele><time>2026-04-25T19:05:19.000Z</time></trkpt>
        <trkpt lat="29.3333259" lon="105.2495164"><ele>323.72</ele><time>2026-04-25T19:05:21.000Z</time></trkpt>
        <trkpt lat="29.3334196" lon="105.2495709"><ele>323.4</ele><time>2026-04-25T19:05:23.000Z</time></trkpt>
        <trkpt lat="29.3335518" lon="105.2495557"><ele>323.52</ele><time>2026-04-25T19:05:25.000Z</time></trkpt>
        <trkpt lat="29.3337135" lon="105.2494503"><ele>323.61</ele><time>2026-04-25T19:05:27.000Z</time></trkpt>
        <trkpt lat="29.3339402" lon="105.2492958"><ele>322.62</ele><time>2026-04-25T19:05:29.000Z</time></trkpt>
        <trkpt lat="29.3341981" lon="105.2491974"><ele>321.01</ele><time>2026-04-25T19:05:31.000Z</time></trkpt>
        <trkpt lat="29.3344555" lon="105.2491638"><ele>319.7</ele><time>2026-04-25T19:05:33.000Z</time></trkpt>
        <trkpt lat="29.3346981" lon="105.2491523"><ele>318.72</ele><time>2026-04-25T19:05:35.000Z</time></trkpt>
        <trkpt lat="29.3348864" lon="105.24927"><ele>316.97</ele><time>2026-04-25T19:05:37.000Z</time></trkpt>
        <trkpt lat="29.3350222" lon="105.2494049"><ele>315.9</ele><time>2026-04-25T19:05:39.000Z</time></trkpt>
        <trkpt lat="29.3351017" lon="105.2495593"><ele>315.29</ele><time>2026-04-25T19:05:41.000Z</time></trkpt>
        <trkpt lat="29.3351159" lon="105.2497477"><ele>315.75</ele><time>2026-04-25T19:05:43.000Z</time></trkpt>
        <trkpt lat="29.335076" lon="105.2499407"><ele>316.7</ele><time>2026-04-25T19:05:45.000Z</time></trkpt>
        <trkpt lat="29.3350371" lon="105.2501306"><ele>316.93</ele><time>2026-04-25T19:05:47.000Z</time></trkpt>
        <trkpt lat="29.3349785" lon="105.2503197"><ele>317.18</ele><time>2026-04-25T19:05:49.000Z</time></trkpt>
        <trkpt lat="29.3349214" lon="105.2505247"><ele>317.57</ele><time>2026-04-25T19:05:51.000Z</time></trkpt>
        <trkpt lat="29.3348724" lon="105.2507384"><ele>318.01</ele><time>2026-04-25T19:05:53.000Z</time></trkpt>
        <trkpt lat="29.3348263" lon="105.2509566"><ele>318.9</ele><time>2026-04-25T19:05:55.000Z</time></trkpt>
        <trkpt lat="29.334784" lon="105.2511866"><ele>320.29</ele><time>2026-04-25T19:05:57.000Z</time></trkpt>
        <trkpt lat="29.3347369" lon="105.2514275"><ele>321.82</ele><time>2026-04-25T19:05:59.000Z</time></trkpt>
        <trkpt lat="29.3346851" lon="105.2516604"><ele>323.58</ele><time>2026-04-25T19:06:01.000Z</time></trkpt>
        <trkpt lat="29.3346303" lon="105.251882"><ele>324.63</ele><time>2026-04-25T19:06:03.000Z</time></trkpt>
        <trkpt lat="29.3345562" lon="105.2520881"><ele>325.67</ele><time>2026-04-25T19:06:05.000Z</time></trkpt>
        <trkpt lat="29.334486" lon="105.2522884"><ele>327.3</ele><time>2026-04-25T19:06:07.000Z</time></trkpt>
        <trkpt lat="29.3344265" lon="105.2524878"><ele>329.2</ele><time>2026-04-25T19:06:09.000Z</time></trkpt>
        <trkpt lat="29.3343925" lon="105.2526876"><ele>330.63</ele><time>2026-04-25T19:06:11.000Z</time></trkpt>
        <trkpt lat="29.3343742" lon="105.2528864"><ele>332.08</ele><time>2026-04-25T19:06:13.000Z</time></trkpt>
        <trkpt lat="29.3343308" lon="105.2530887"><ele>333.27</ele><time>2026-04-25T19:06:15.000Z</time></trkpt>
        <trkpt lat="29.3342238" lon="105.2532719"><ele>334.56</ele><time>2026-04-25T19:06:17.000Z</time></trkpt>
        <trkpt lat="29.3340364" lon="105.2534149"><ele>335.01</ele><time>2026-04-25T19:06:19.000Z</time></trkpt>
        <trkpt lat="29.3338233" lon="105.2535491"><ele>335.87</ele><time>2026-04-25T19:06:21.000Z</time></trkpt>
        <trkpt lat="29.3336123" lon="105.253684"><ele>336.99</ele><time>2026-04-25T19:06:23.000Z</time></trkpt>
        <trkpt lat="29.3334013" lon="105.2538063"><ele>337.82</ele><time>2026-04-25T19:06:25.000Z</time></trkpt>
        <trkpt lat="29.3332143" lon="105.2539118"><ele>339.4</ele><time>2026-04-25T19:06:27.000Z</time></trkpt>
        <trkpt lat="29.3330526" lon="105.2540153"><ele>339.98</ele><time>2026-04-25T19:06:29.000Z</time></trkpt>
        <trkpt lat="29.3329358" lon="105.2541222"><ele>340.92</ele><time>2026-04-25T19:06:31.000Z</time></trkpt>
        <trkpt lat="29.3329247" lon="105.2542929"><ele>341.7</ele><time>2026-04-25T19:06:33.000Z</time></trkpt>
        <trkpt lat="29.3329674" lon="105.2544959"><ele>342.06</ele><time>2026-04-25T19:06:35.000Z</time></trkpt>
        <trkpt lat="29.3330442" lon="105.2546996"><ele>342.29</ele><time>2026-04-25T19:06:37.000Z</time></trkpt>
        <trkpt lat="29.3330845" lon="105.2548968"><ele>341.94</ele><time>2026-04-25T19:06:39.000Z</time></trkpt>
        <trkpt lat="29.3330662" lon="105.2550898"><ele>341.1</ele><time>2026-04-25T19:06:41.000Z</time></trkpt>
        <trkpt lat="29.3330118" lon="105.255284"><ele>340.45</ele><time>2026-04-25T19:06:43.000Z</time></trkpt>
        <trkpt lat="29.3329412" lon="105.255476"><ele>340.12</ele><time>2026-04-25T19:06:45.000Z</time></trkpt>
        <trkpt lat="29.3328756" lon="105.2556719"><ele>339.8</ele><time>2026-04-25T19:06:47.000Z</time></trkpt>
        <trkpt lat="29.3328132" lon="105.2558821"><ele>339.18</ele><time>2026-04-25T19:06:49.000Z</time></trkpt>
        <trkpt lat="29.3327603" lon="105.256103"><ele>338.72</ele><time>2026-04-25T19:06:51.000Z</time></trkpt>
        <trkpt lat="29.3327014" lon="105.2563242"><ele>338.12</ele><time>2026-04-25T19:06:53.000Z</time></trkpt>
        <trkpt lat="29.3326314" lon="105.256561"><ele>337.04</ele><time>2026-04-25T19:06:55.000Z</time></trkpt>
        <trkpt lat="29.3325711" lon="105.2567894"><ele>336.15</ele><time>2026-04-25T19:06:57.000Z</time></trkpt>
        <trkpt lat="29.332504" lon="105.2570105"><ele>334.74</ele><time>2026-04-25T19:06:59.000Z</time></trkpt>
        <trkpt lat="29.3324482" lon="105.2571995"><ele>333.44</ele><time>2026-04-25T19:07:01.000Z</time></trkpt>
        <trkpt lat="29.3324082" lon="105.2573716"><ele>332.44</ele><time>2026-04-25T19:07:03.000Z</time></trkpt>
        <trkpt lat="29.3323938" lon="105.2575216"><ele>331.67</ele><time>2026-04-25T19:07:05.000Z</time></trkpt>
        <trkpt lat="29.3324246" lon="105.2576544"><ele>330.92</ele><time>2026-04-25T19:07:07.000Z</time></trkpt>
        <trkpt lat="29.3324948" lon="105.2577832"><ele>329.19</ele><time>2026-04-25T19:07:09.000Z</time></trkpt>
        <trkpt lat="29.3325914" lon="105.2579207"><ele>326.8</ele><time>2026-04-25T19:07:11.000Z</time></trkpt>
        <trkpt lat="29.3326907" lon="105.2580466"><ele>324.96</ele><time>2026-04-25T19:07:13.000Z</time></trkpt>
        <trkpt lat="29.332784" lon="105.2581879"><ele>322.87</ele><time>2026-04-25T19:07:15.000Z</time></trkpt>
        <trkpt lat="29.3328855" lon="105.2583529"><ele>321.83</ele><time>2026-04-25T19:07:17.000Z</time></trkpt>
        <trkpt lat="29.332969" lon="105.2584931"><ele>320.96</ele><time>2026-04-25T19:07:19.000Z</time></trkpt>
        <trkpt lat="29.3330491" lon="105.2586195"><ele>320.9</ele><time>2026-04-25T19:07:22.000Z</time></trkpt>
        <trkpt lat="29.3331227" lon="105.2587076"><ele>320.46</ele><time>2026-04-25T19:07:23.000Z</time></trkpt>
        <trkpt lat="29.333209" lon="105.2587411"><ele>319.62</ele><time>2026-04-25T19:07:25.000Z</time></trkpt>
        <trkpt lat="29.3333311" lon="105.2587507"><ele>318.44</ele><time>2026-04-25T19:07:29.000Z</time></trkpt>
        <trkpt lat="29.3334645" lon="105.2587566"><ele>316.74</ele><time>2026-04-25T19:07:33.000Z</time></trkpt>
        <trkpt lat="29.3336146" lon="105.2587722"><ele>315.21</ele><time>2026-04-25T19:07:37.000Z</time></trkpt>
        <trkpt lat="29.3337797" lon="105.2587928"><ele>313.9</ele><time>2026-04-25T19:07:41.000Z</time></trkpt>
        <trkpt lat="29.3339395" lon="105.2588088"><ele>313.43</ele><time>2026-04-25T19:07:45.000Z</time></trkpt>
        <trkpt lat="29.3340615" lon="105.25882"><ele>313.16</ele><time>2026-04-25T19:07:47.000Z</time></trkpt>
        <trkpt lat="29.334197" lon="105.2588444"><ele>313.06</ele><time>2026-04-25T19:07:49.000Z</time></trkpt>
        <trkpt lat="29.3343573" lon="105.2588773"><ele>312.94</ele><time>2026-04-25T19:07:51.000Z</time></trkpt>
        <trkpt lat="29.3345118" lon="105.2589407"><ele>313.55</ele><time>2026-04-25T19:07:53.000Z</time></trkpt>
        <trkpt lat="29.3346658" lon="105.2590105"><ele>314.23</ele><time>2026-04-25T19:07:55.000Z</time></trkpt>
        <trkpt lat="29.3348136" lon="105.2590687"><ele>314.96</ele><time>2026-04-25T19:07:57.000Z</time></trkpt>
        <trkpt lat="29.3349554" lon="105.2591078"><ele>316.05</ele><time>2026-04-25T19:07:59.000Z</time></trkpt>
        <trkpt lat="29.3350673" lon="105.2591292"><ele>316.23</ele><time>2026-04-25T19:08:01.000Z</time></trkpt>
        <trkpt lat="29.3351813" lon="105.2591568"><ele>315.22</ele><time>2026-04-25T19:08:03.000Z</time></trkpt>
        <trkpt lat="29.3353002" lon="105.2592036"><ele>313.95</ele><time>2026-04-25T19:08:05.000Z</time></trkpt>
        <trkpt lat="29.3354286" lon="105.2592506"><ele>312.75</ele><time>2026-04-25T19:08:07.000Z</time></trkpt>
        <trkpt lat="29.33555" lon="105.2593015"><ele>311.89</ele><time>2026-04-25T19:08:09.000Z</time></trkpt>
        <trkpt lat="29.3356601" lon="105.2593708"><ele>311.1</ele><time>2026-04-25T19:08:11.000Z</time></trkpt>
        <trkpt lat="29.3357697" lon="105.2594389"><ele>309.94</ele><time>2026-04-25T19:08:13.000Z</time></trkpt>
        <trkpt lat="29.3358803" lon="105.2595114"><ele>308.61</ele><time>2026-04-25T19:08:15.000Z</time></trkpt>
        <trkpt lat="29.3359911" lon="105.2595864"><ele>307.81</ele><time>2026-04-25T19:08:17.000Z</time></trkpt>
        <trkpt lat="29.3361009" lon="105.2596565"><ele>306.79</ele><time>2026-04-25T19:08:19.000Z</time></trkpt>
        <trkpt lat="29.3362104" lon="105.2597255"><ele>306.31</ele><time>2026-04-25T19:08:21.000Z</time></trkpt>
        <trkpt lat="29.3363263" lon="105.2597918"><ele>306.04</ele><time>2026-04-25T19:08:23.000Z</time></trkpt>
        <trkpt lat="29.3364288" lon="105.2598463"><ele>305.97</ele><time>2026-04-25T19:08:25.000Z</time></trkpt>
        <trkpt lat="29.3365742" lon="105.2598847"><ele>306.02</ele><time>2026-04-25T19:08:29.000Z</time></trkpt>
        <trkpt lat="29.3366853" lon="105.2598877"><ele>306.08</ele><time>2026-04-25T19:08:31.000Z</time></trkpt>
        <trkpt lat="29.3367913" lon="105.2598785"><ele>306.61</ele><time>2026-04-25T19:08:33.000Z</time></trkpt>
        <trkpt lat="29.3368956" lon="105.2598801"><ele>307.5</ele><time>2026-04-25T19:08:35.000Z</time></trkpt>
        <trkpt lat="29.3369894" lon="105.2599055"><ele>308.2</ele><time>2026-04-25T19:08:37.000Z</time></trkpt>
        <trkpt lat="29.3370778" lon="105.2599542"><ele>308.83</ele><time>2026-04-25T19:08:39.000Z</time></trkpt>
        <trkpt lat="29.3371737" lon="105.2600253"><ele>310.1</ele><time>2026-04-25T19:08:41.000Z</time></trkpt>
        <trkpt lat="29.3372808" lon="105.2601067"><ele>311.24</ele><time>2026-04-25T19:08:43.000Z</time></trkpt>
        <trkpt lat="29.3373939" lon="105.2601982"><ele>312.3</ele><time>2026-04-25T19:08:45.000Z</time></trkpt>
        <trkpt lat="29.3375162" lon="105.2603125"><ele>313.27</ele><time>2026-04-25T19:08:47.000Z</time></trkpt>
        <trkpt lat="29.337621" lon="105.2604605"><ele>314.49</ele><time>2026-04-25T19:08:49.000Z</time></trkpt>
        <trkpt lat="29.3376765" lon="105.2606455"><ele>315.37</ele><time>2026-04-25T19:08:51.000Z</time></trkpt>
        <trkpt lat="29.3376442" lon="105.2608332"><ele>317.3</ele><time>2026-04-25T19:08:53.000Z</time></trkpt>
        <trkpt lat="29.3376442" lon="105.2608332"><ele>317.3</ele><time>2026-04-25T19:08:54.000Z</time></trkpt>
        <trkpt lat="29.3375177" lon="105.2610061"><ele>323.98</ele><time>2026-04-25T19:08:55.000Z</time></trkpt>
        <trkpt lat="29.3375177" lon="105.2610061"><ele>323.98</ele><time>2026-04-25T19:08:55.000Z</time></trkpt>
      </trkseg>
  </trk>
</gpx>